sensor_id;sensor_type;location;lat;lon;timestamp;temperature;humidity
10431;DHT22;5262;59.958;17.726;2023-02-28T00:01:12;-1.10;99.90
10431;DHT22;5262;59.958;17.726;2023-02-28T00:03:37;-1.00;99.90
10431;DHT22;5262;59.958;17.726;2023-02-28T00:06:04;-1.00;99.90
10431;DHT22;5262;59.958;17.726;2023-02-28T00:08:30;-1.00;99.90
10431;DHT22;5262;59.958;17.726;2023-02-28T00:10:56;-0.90;99.90
10431;DHT22;5262;59.958;17.726;2023-02-28T00:13:25;-0.80;99.90
10431;DHT22;5262;59.958;17.726;2023-02-28T00:15:59;-0.90;99.90
10431;DHT22;5262;59.958;17.726;2023-02-28T00:18:25;-0.90;99.90
10431;DHT22;5262;59.958;17.726;2023-02-28T00:20:51;-0.90;99.90
10431;DHT22;5262;59.958;17.726;2023-02-28T00:23:17;-0.80;99.90
10431;DHT22;5262;59.958;17.726;2023-02-28T00:25:42;-1.00;99.90
10431;DHT22;5262;59.958;17.726;2023-02-28T00:28:08;-1.00;99.90
10431;DHT22;5262;59.958;17.726;2023-02-28T00:30:33;-0.90;99.90
10431;DHT22;5262;59.958;17.726;2023-02-28T00:32:59;-0.90;99.90
10431;DHT22;5262;59.958;17.726;2023-02-28T00:35:24;-0.80;99.90
10431;DHT22;5262;59.958;17.726;2023-02-28T00:37:50;-0.70;99.90
10431;DHT22;5262;59.958;17.726;2023-02-28T00:40:16;-0.70;99.90
10431;DHT22;5262;59.958;17.726;2023-02-28T00:42:41;-0.70;99.90
10431;DHT22;5262;59.958;17.726;2023-02-28T00:45:07;-0.60;99.90
10431;DHT22;5262;59.958;17.726;2023-02-28T00:47:34;-0.60;99.90
10431;DHT22;5262;59.958;17.726;2023-02-28T00:49:59;-0.70;99.90
10431;DHT22;5262;59.958;17.726;2023-02-28T00:52:25;-0.70;99.90
10431;DHT22;5262;59.958;17.726;2023-02-28T00:54:51;-0.80;99.90
10431;DHT22;5262;59.958;17.726;2023-02-28T00:57:17;-0.80;99.90
10431;DHT22;5262;59.958;17.726;2023-02-28T00:59:42;-0.70;99.90
10431;DHT22;5262;59.958;17.726;2023-02-28T01:02:08;-0.60;99.90
10431;DHT22;5262;59.958;17.726;2023-02-28T01:04:34;-0.60;99.90
10431;DHT22;5262;59.958;17.726;2023-02-28T01:06:59;-0.70;99.90
10431;DHT22;5262;59.958;17.726;2023-02-28T01:09:25;-0.70;99.90
10431;DHT22;5262;59.958;17.726;2023-02-28T01:11:51;-0.70;99.90
10431;DHT22;5262;59.958;17.726;2023-02-28T01:14:17;-0.70;99.90
10431;DHT22;5262;59.958;17.726;2023-02-28T01:16:43;-0.80;99.90
10431;DHT22;5262;59.958;17.726;2023-02-28T01:19:09;-0.80;99.90
10431;DHT22;5262;59.958;17.726;2023-02-28T01:21:35;-0.80;99.90
10431;DHT22;5262;59.958;17.726;2023-02-28T01:24:02;-0.80;99.90
10431;DHT22;5262;59.958;17.726;2023-02-28T01:26:29;-0.90;99.90
10431;DHT22;5262;59.958;17.726;2023-02-28T01:28:54;-1.00;99.90
10431;DHT22;5262;59.958;17.726;2023-02-28T01:31:21;-1.20;99.90
10431;DHT22;5262;59.958;17.726;2023-02-28T01:33:48;-1.20;99.90
10431;DHT22;5262;59.958;17.726;2023-02-28T01:36:19;-1.20;99.90
10431;DHT22;5262;59.958;17.726;2023-02-28T01:38:46;-1.30;99.90
10431;DHT22;5262;59.958;17.726;2023-02-28T01:41:19;-1.30;99.90
10431;DHT22;5262;59.958;17.726;2023-02-28T01:46:12;-1.10;99.90
10431;DHT22;5262;59.958;17.726;2023-02-28T01:48:45;-1.10;99.90
10431;DHT22;5262;59.958;17.726;2023-02-28T01:51:42;-1.10;99.90
10431;DHT22;5262;59.958;17.726;2023-02-28T01:56:54;-1.00;99.90
10431;DHT22;5262;59.958;17.726;2023-02-28T01:59:27;-0.90;99.90
10431;DHT22;5262;59.958;17.726;2023-02-28T02:01:55;-1.00;99.90
10431;DHT22;5262;59.958;17.726;2023-02-28T02:04:23;-1.00;99.90
10431;DHT22;5262;59.958;17.726;2023-02-28T02:06:52;-1.00;99.90
10431;DHT22;5262;59.958;17.726;2023-02-28T02:09:17;-0.90;99.90
10431;DHT22;5262;59.958;17.726;2023-02-28T02:11:44;-0.90;99.90
10431;DHT22;5262;59.958;17.726;2023-02-28T02:15:00;-0.90;99.90
10431;DHT22;5262;59.958;17.726;2023-02-28T02:28:26;-0.80;99.90
10431;DHT22;5262;59.958;17.726;2023-02-28T02:34:23;-0.90;99.90
10431;DHT22;5262;59.958;17.726;2023-02-28T02:42:24;-1.10;99.90
10431;DHT22;5262;59.958;17.726;2023-02-28T02:44:58;-1.20;99.90
10431;DHT22;5262;59.958;17.726;2023-02-28T02:47:28;-1.10;99.90
10431;DHT22;5262;59.958;17.726;2023-02-28T02:49:58;-1.10;99.90
10431;DHT22;5262;59.958;17.726;2023-02-28T02:52:32;-0.90;99.90
10431;DHT22;5262;59.958;17.726;2023-02-28T02:55:00;-0.90;99.90
10431;DHT22;5262;59.958;17.726;2023-02-28T02:57:38;-0.50;99.90
10431;DHT22;5262;59.958;17.726;2023-02-28T03:00:06;-0.30;99.90
10431;DHT22;5262;59.958;17.726;2023-02-28T03:02:35;-0.30;99.90
10431;DHT22;5262;59.958;17.726;2023-02-28T03:05:12;-0.10;99.90
10431;DHT22;5262;59.958;17.726;2023-02-28T03:07:38;-0.20;99.90
10431;DHT22;5262;59.958;17.726;2023-02-28T03:10:34;-0.40;99.90
10431;DHT22;5262;59.958;17.726;2023-02-28T03:18:52;-0.20;99.90
10431;DHT22;5262;59.958;17.726;2023-02-28T03:26:53;-0.30;99.90
10431;DHT22;5262;59.958;17.726;2023-02-28T03:29:31;-0.30;99.90
10431;DHT22;5262;59.958;17.726;2023-02-28T03:32:48;-0.20;99.90
10431;DHT22;5262;59.958;17.726;2023-02-28T03:35:10;-0.30;99.90
10431;DHT22;5262;59.958;17.726;2023-02-28T03:37:40;-0.30;99.90
10431;DHT22;5262;59.958;17.726;2023-02-28T03:40:11;-0.40;99.90
10431;DHT22;5262;59.958;17.726;2023-02-28T03:42:41;-0.40;99.90
10431;DHT22;5262;59.958;17.726;2023-02-28T03:45:29;-0.30;99.90
10431;DHT22;5262;59.958;17.726;2023-02-28T03:48:25;-0.20;99.90
10431;DHT22;5262;59.958;17.726;2023-02-28T03:50:51;-0.20;99.90
10431;DHT22;5262;59.958;17.726;2023-02-28T03:53:30;-0.30;99.90
10431;DHT22;5262;59.958;17.726;2023-02-28T03:56:11;-0.40;99.90
10431;DHT22;5262;59.958;17.726;2023-02-28T03:59:02;-0.10;99.90
10431;DHT22;5262;59.958;17.726;2023-02-28T04:01:39;-0.20;99.90
10431;DHT22;5262;59.958;17.726;2023-02-28T04:04:08;-0.30;99.90
10431;DHT22;5262;59.958;17.726;2023-02-28T04:06:34;-0.50;99.90
10431;DHT22;5262;59.958;17.726;2023-02-28T04:09:01;-0.60;99.90
10431;DHT22;5262;59.958;17.726;2023-02-28T04:11:39;-0.70;99.90
10431;DHT22;5262;59.958;17.726;2023-02-28T04:14:07;-0.70;99.90
10431;DHT22;5262;59.958;17.726;2023-02-28T04:16:35;-0.60;99.90
10431;DHT22;5262;59.958;17.726;2023-02-28T04:19:03;-0.70;99.90
10431;DHT22;5262;59.958;17.726;2023-02-28T04:21:38;-0.70;99.90
10431;DHT22;5262;59.958;17.726;2023-02-28T04:24:06;-0.80;99.90
10431;DHT22;5262;59.958;17.726;2023-02-28T04:26:34;-0.70;99.90
10431;DHT22;5262;59.958;17.726;2023-02-28T04:29:02;-0.70;99.90
10431;DHT22;5262;59.958;17.726;2023-02-28T04:31:28;-0.80;99.90
10431;DHT22;5262;59.958;17.726;2023-02-28T04:33:54;-0.70;99.90
10431;DHT22;5262;59.958;17.726;2023-02-28T04:36:20;-0.80;99.90
10431;DHT22;5262;59.958;17.726;2023-02-28T04:38:46;-0.80;99.90
10431;DHT22;5262;59.958;17.726;2023-02-28T04:41:12;-0.90;99.90
10431;DHT22;5262;59.958;17.726;2023-02-28T04:43:38;-1.00;99.90
10431;DHT22;5262;59.958;17.726;2023-02-28T04:46:05;-1.00;99.90
10431;DHT22;5262;59.958;17.726;2023-02-28T04:48:33;-1.00;99.90
10431;DHT22;5262;59.958;17.726;2023-02-28T04:51:03;-0.90;99.90
10431;DHT22;5262;59.958;17.726;2023-02-28T04:53:29;-0.90;99.90
10431;DHT22;5262;59.958;17.726;2023-02-28T04:55:56;-1.00;99.90
10431;DHT22;5262;59.958;17.726;2023-02-28T04:58:24;-1.10;99.90
10431;DHT22;5262;59.958;17.726;2023-02-28T05:00:51;-1.20;99.90
10431;DHT22;5262;59.958;17.726;2023-02-28T05:03:16;-1.30;99.90
10431;DHT22;5262;59.958;17.726;2023-02-28T05:05:42;-1.30;99.90
10431;DHT22;5262;59.958;17.726;2023-02-28T05:08:08;-1.40;99.90
10431;DHT22;5262;59.958;17.726;2023-02-28T05:10:35;-1.60;99.90
10431;DHT22;5262;59.958;17.726;2023-02-28T05:13:00;-1.70;99.90
10431;DHT22;5262;59.958;17.726;2023-02-28T05:15:26;-1.80;99.90
10431;DHT22;5262;59.958;17.726;2023-02-28T05:17:52;-1.80;99.90
10431;DHT22;5262;59.958;17.726;2023-02-28T05:20:17;-1.90;99.90
10431;DHT22;5262;59.958;17.726;2023-02-28T05:22:43;-2.00;99.90
10431;DHT22;5262;59.958;17.726;2023-02-28T05:25:16;-2.10;99.90
10431;DHT22;5262;59.958;17.726;2023-02-28T05:27:42;-2.10;99.90
10431;DHT22;5262;59.958;17.726;2023-02-28T05:30:08;-2.20;99.90
10431;DHT22;5262;59.958;17.726;2023-02-28T05:32:39;-2.30;99.90
10431;DHT22;5262;59.958;17.726;2023-02-28T05:35:09;-2.40;99.90
10431;DHT22;5262;59.958;17.726;2023-02-28T05:37:36;-2.40;99.90
10431;DHT22;5262;59.958;17.726;2023-02-28T05:40:02;-2.40;99.90
10431;DHT22;5262;59.958;17.726;2023-02-28T05:42:31;-2.40;99.90
10431;DHT22;5262;59.958;17.726;2023-02-28T05:44:57;-2.40;99.90
10431;DHT22;5262;59.958;17.726;2023-02-28T05:47:22;-2.50;99.90
10431;DHT22;5262;59.958;17.726;2023-02-28T05:49:48;-2.60;99.90
10431;DHT22;5262;59.958;17.726;2023-02-28T05:52:14;-2.60;99.90
10431;DHT22;5262;59.958;17.726;2023-02-28T05:54:40;-2.60;99.90
10431;DHT22;5262;59.958;17.726;2023-02-28T05:57:06;-2.60;99.90
10431;DHT22;5262;59.958;17.726;2023-02-28T05:59:32;-2.60;99.90
10431;DHT22;5262;59.958;17.726;2023-02-28T06:01:58;-2.70;99.90
10431;DHT22;5262;59.958;17.726;2023-02-28T06:04:24;-2.70;99.90
10431;DHT22;5262;59.958;17.726;2023-02-28T06:06:50;-2.80;99.90
10431;DHT22;5262;59.958;17.726;2023-02-28T06:09:17;-2.70;99.90
10431;DHT22;5262;59.958;17.726;2023-02-28T06:11:43;-2.70;99.90
10431;DHT22;5262;59.958;17.726;2023-02-28T06:14:15;-2.70;99.90
10431;DHT22;5262;59.958;17.726;2023-02-28T06:16:41;-2.70;99.90
10431;DHT22;5262;59.958;17.726;2023-02-28T06:19:09;-2.70;99.90
10431;DHT22;5262;59.958;17.726;2023-02-28T06:21:35;-2.60;99.90
10431;DHT22;5262;59.958;17.726;2023-02-28T06:24:01;-2.60;99.90
10431;DHT22;5262;59.958;17.726;2023-02-28T06:26:27;-2.60;99.90
10431;DHT22;5262;59.958;17.726;2023-02-28T06:28:53;-2.60;99.90
10431;DHT22;5262;59.958;17.726;2023-02-28T06:31:19;-2.50;99.90
10431;DHT22;5262;59.958;17.726;2023-02-28T06:33:45;-2.50;99.90
10431;DHT22;5262;59.958;17.726;2023-02-28T06:36:13;-2.40;99.90
10431;DHT22;5262;59.958;17.726;2023-02-28T06:38:39;-2.40;99.90
10431;DHT22;5262;59.958;17.726;2023-02-28T06:41:06;-2.30;99.90
10431;DHT22;5262;59.958;17.726;2023-02-28T06:43:35;-2.30;99.90
10431;DHT22;5262;59.958;17.726;2023-02-28T06:46:03;-2.30;99.90
10431;DHT22;5262;59.958;17.726;2023-02-28T06:48:30;-2.20;99.90
10431;DHT22;5262;59.958;17.726;2023-02-28T06:51:18;-2.20;99.90
10431;DHT22;5262;59.958;17.726;2023-02-28T06:53:45;-2.10;99.90
10431;DHT22;5262;59.958;17.726;2023-02-28T06:56:13;-2.10;99.90
10431;DHT22;5262;59.958;17.726;2023-02-28T06:58:40;-2.00;99.90
10431;DHT22;5262;59.958;17.726;2023-02-28T07:01:06;-1.90;99.90
10431;DHT22;5262;59.958;17.726;2023-02-28T07:03:32;-1.80;99.90
10431;DHT22;5262;59.958;17.726;2023-02-28T07:05:57;-1.50;99.90
10431;DHT22;5262;59.958;17.726;2023-02-28T07:08:24;-1.40;99.90
10431;DHT22;5262;59.958;17.726;2023-02-28T07:10:54;-1.30;99.90
10431;DHT22;5262;59.958;17.726;2023-02-28T07:13:21;-1.00;99.90
10431;DHT22;5262;59.958;17.726;2023-02-28T07:16:07;-0.90;99.90
10431;DHT22;5262;59.958;17.726;2023-02-28T07:18:34;-0.70;99.90
10431;DHT22;5262;59.958;17.726;2023-02-28T07:21:06;-0.50;99.90
10431;DHT22;5262;59.958;17.726;2023-02-28T07:23:32;0.00;99.90
10431;DHT22;5262;59.958;17.726;2023-02-28T07:25:58;0.40;99.90
10431;DHT22;5262;59.958;17.726;2023-02-28T07:28:24;1.00;99.90
10431;DHT22;5262;59.958;17.726;2023-02-28T07:30:50;1.70;99.90
10431;DHT22;5262;59.958;17.726;2023-02-28T07:33:16;2.40;99.90
10431;DHT22;5262;59.958;17.726;2023-02-28T07:35:42;3.20;99.90
10431;DHT22;5262;59.958;17.726;2023-02-28T07:38:08;3.90;99.90
10431;DHT22;5262;59.958;17.726;2023-02-28T07:40:35;4.30;99.90
10431;DHT22;5262;59.958;17.726;2023-02-28T07:43:02;4.70;99.90
10431;DHT22;5262;59.958;17.726;2023-02-28T07:45:28;5.00;99.90
10431;DHT22;5262;59.958;17.726;2023-02-28T07:47:54;5.20;99.90
10431;DHT22;5262;59.958;17.726;2023-02-28T07:50:21;5.10;99.90
10431;DHT22;5262;59.958;17.726;2023-02-28T07:52:46;5.20;99.90
10431;DHT22;5262;59.958;17.726;2023-02-28T07:55:12;5.40;99.90
10431;DHT22;5262;59.958;17.726;2023-02-28T07:57:39;5.40;99.90
10431;DHT22;5262;59.958;17.726;2023-02-28T08:00:07;5.20;99.90
10431;DHT22;5262;59.958;17.726;2023-02-28T08:02:35;4.90;99.90
10431;DHT22;5262;59.958;17.726;2023-02-28T08:05:00;4.70;99.90
10431;DHT22;5262;59.958;17.726;2023-02-28T08:07:27;4.50;99.90
10431;DHT22;5262;59.958;17.726;2023-02-28T08:09:52;4.10;99.90
10431;DHT22;5262;59.958;17.726;2023-02-28T08:12:18;3.90;99.90
10431;DHT22;5262;59.958;17.726;2023-02-28T08:14:44;3.90;99.90
10431;DHT22;5262;59.958;17.726;2023-02-28T08:17:11;4.00;99.90
10431;DHT22;5262;59.958;17.726;2023-02-28T08:19:36;4.00;99.90
10431;DHT22;5262;59.958;17.726;2023-02-28T08:22:02;4.60;99.90
10431;DHT22;5262;59.958;17.726;2023-02-28T08:24:28;5.70;99.90
10431;DHT22;5262;59.958;17.726;2023-02-28T08:26:54;7.00;99.90
10431;DHT22;5262;59.958;17.726;2023-02-28T08:29:19;8.30;99.90
10431;DHT22;5262;59.958;17.726;2023-02-28T08:31:45;8.70;99.90
10431;DHT22;5262;59.958;17.726;2023-02-28T08:34:15;8.30;99.90
10431;DHT22;5262;59.958;17.726;2023-02-28T08:36:41;7.80;99.90
10431;DHT22;5262;59.958;17.726;2023-02-28T08:39:09;7.20;99.90
10431;DHT22;5262;59.958;17.726;2023-02-28T08:41:35;6.90;99.90
10431;DHT22;5262;59.958;17.726;2023-02-28T08:44:01;6.70;99.90
10431;DHT22;5262;59.958;17.726;2023-02-28T08:46:26;6.40;99.90
10431;DHT22;5262;59.958;17.726;2023-02-28T08:48:54;6.30;99.90
10431;DHT22;5262;59.958;17.726;2023-02-28T08:51:20;6.00;99.90
10431;DHT22;5262;59.958;17.726;2023-02-28T08:53:52;6.00;99.90
10431;DHT22;5262;59.958;17.726;2023-02-28T08:56:18;6.30;99.90
10431;DHT22;5262;59.958;17.726;2023-02-28T08:58:45;6.30;99.90
10431;DHT22;5262;59.958;17.726;2023-02-28T09:01:19;6.20;99.90
10431;DHT22;5262;59.958;17.726;2023-02-28T09:03:50;6.20;99.90
10431;DHT22;5262;59.958;17.726;2023-02-28T09:06:18;6.20;99.90
10431;DHT22;5262;59.958;17.726;2023-02-28T09:08:44;6.30;99.90
10431;DHT22;5262;59.958;17.726;2023-02-28T09:11:10;6.20;99.90
10431;DHT22;5262;59.958;17.726;2023-02-28T09:13:37;6.50;99.90
10431;DHT22;5262;59.958;17.726;2023-02-28T09:16:04;6.50;99.90
10431;DHT22;5262;59.958;17.726;2023-02-28T09:18:31;6.40;99.90
10431;DHT22;5262;59.958;17.726;2023-02-28T09:20:57;6.50;99.90
10431;DHT22;5262;59.958;17.726;2023-02-28T09:23:23;6.50;99.90
10431;DHT22;5262;59.958;17.726;2023-02-28T09:25:51;6.40;99.90
10431;DHT22;5262;59.958;17.726;2023-02-28T09:28:18;6.40;99.90
10431;DHT22;5262;59.958;17.726;2023-02-28T09:30:45;6.40;99.90
10431;DHT22;5262;59.958;17.726;2023-02-28T09:33:12;6.20;99.90
10431;DHT22;5262;59.958;17.726;2023-02-28T09:35:38;6.10;99.90
10431;DHT22;5262;59.958;17.726;2023-02-28T09:38:04;6.10;99.90
10431;DHT22;5262;59.958;17.726;2023-02-28T09:40:31;6.10;99.90
10431;DHT22;5262;59.958;17.726;2023-02-28T09:42:57;6.30;99.90
10431;DHT22;5262;59.958;17.726;2023-02-28T09:45:35;6.40;99.90
10431;DHT22;5262;59.958;17.726;2023-02-28T09:48:10;6.50;99.90
10431;DHT22;5262;59.958;17.726;2023-02-28T09:50:50;6.70;99.90
10431;DHT22;5262;59.958;17.726;2023-02-28T09:53:21;6.70;99.90
10431;DHT22;5262;59.958;17.726;2023-02-28T09:55:58;6.80;99.90
10431;DHT22;5262;59.958;17.726;2023-02-28T09:58:51;7.10;99.90
10431;DHT22;5262;59.958;17.726;2023-02-28T10:01:24;7.40;99.90
10431;DHT22;5262;59.958;17.726;2023-02-28T10:03:57;7.50;99.90
10431;DHT22;5262;59.958;17.726;2023-02-28T10:06:39;8.00;99.90
10431;DHT22;5262;59.958;17.726;2023-02-28T10:09:36;8.50;99.90
10431;DHT22;5262;59.958;17.726;2023-02-28T10:12:05;9.70;99.90
10431;DHT22;5262;59.958;17.726;2023-02-28T10:14:33;11.00;98.80
10431;DHT22;5262;59.958;17.726;2023-02-28T10:17:19;11.20;97.80
10431;DHT22;5262;59.958;17.726;2023-02-28T10:24:48;12.70;94.80
10431;DHT22;5262;59.958;17.726;2023-02-28T10:27:15;12.50;94.80
10431;DHT22;5262;59.958;17.726;2023-02-28T10:29:46;12.20;94.70
10431;DHT22;5262;59.958;17.726;2023-02-28T10:32:17;12.00;94.20
10431;DHT22;5262;59.958;17.726;2023-02-28T10:34:43;12.30;94.20
10431;DHT22;5262;59.958;17.726;2023-02-28T10:37:11;12.00;93.00
10431;DHT22;5262;59.958;17.726;2023-02-28T10:39:41;12.70;93.90
10431;DHT22;5262;59.958;17.726;2023-02-28T10:44:44;14.10;91.40
10431;DHT22;5262;59.958;17.726;2023-02-28T10:47:17;14.00;91.00
10431;DHT22;5262;59.958;17.726;2023-02-28T10:49:49;13.80;90.70
10431;DHT22;5262;59.958;17.726;2023-02-28T10:52:36;13.00;90.70
10431;DHT22;5262;59.958;17.726;2023-02-28T10:57:48;13.70;90.40
10431;DHT22;5262;59.958;17.726;2023-02-28T11:00:20;14.10;87.80
10431;DHT22;5262;59.958;17.726;2023-02-28T11:02:47;15.10;87.10
10431;DHT22;5262;59.958;17.726;2023-02-28T11:05:30;14.90;83.40
10431;DHT22;5262;59.958;17.726;2023-02-28T11:08:14;15.10;84.40
10431;DHT22;5262;59.958;17.726;2023-02-28T11:10:46;14.70;84.10
10431;DHT22;5262;59.958;17.726;2023-02-28T11:13:20;13.80;81.90
10431;DHT22;5262;59.958;17.726;2023-02-28T11:15:55;13.60;82.60
10431;DHT22;5262;59.958;17.726;2023-02-28T11:18:55;13.00;84.90
10431;DHT22;5262;59.958;17.726;2023-02-28T11:21:31;12.60;85.60
10431;DHT22;5262;59.958;17.726;2023-02-28T11:24:05;11.90;87.70
10431;DHT22;5262;59.958;17.726;2023-02-28T11:26:46;12.10;87.90
10431;DHT22;5262;59.958;17.726;2023-02-28T11:29:42;12.60;87.80
10431;DHT22;5262;59.958;17.726;2023-02-28T11:32:18;12.40;86.20
10431;DHT22;5262;59.958;17.726;2023-02-28T11:34:46;12.40;85.70
10431;DHT22;5262;59.958;17.726;2023-02-28T11:37:18;12.30;85.80
10431;DHT22;5262;59.958;17.726;2023-02-28T11:39:45;12.30;86.60
10431;DHT22;5262;59.958;17.726;2023-02-28T11:45:12;13.00;86.70
10431;DHT22;5262;59.958;17.726;2023-02-28T11:48:04;13.80;85.90
10431;DHT22;5262;59.958;17.726;2023-02-28T11:50:42;14.60;81.30
10431;DHT22;5262;59.958;17.726;2023-02-28T12:07:31;15.90;74.60
10431;DHT22;5262;59.958;17.726;2023-02-28T12:10:44;15.50;75.20
10431;DHT22;5262;59.958;17.726;2023-02-28T12:14:14;15.80;74.80
10431;DHT22;5262;59.958;17.726;2023-02-28T12:24:55;15.70;73.00
10431;DHT22;5262;59.958;17.726;2023-02-28T12:27:27;14.70;72.90
10431;DHT22;5262;59.958;17.726;2023-02-28T12:29:55;14.40;74.20
10431;DHT22;5262;59.958;17.726;2023-02-28T12:32:30;14.50;75.50
10431;DHT22;5262;59.958;17.726;2023-02-28T12:37:51;14.40;75.30
10431;DHT22;5262;59.958;17.726;2023-02-28T12:40:44;14.20;74.70
10431;DHT22;5262;59.958;17.726;2023-02-28T12:43:13;14.50;74.40
10431;DHT22;5262;59.958;17.726;2023-02-28T12:48:13;14.50;74.30
10431;DHT22;5262;59.958;17.726;2023-02-28T12:50:41;14.80;74.10
10431;DHT22;5262;59.958;17.726;2023-02-28T12:53:15;14.90;73.90
10431;DHT22;5262;59.958;17.726;2023-02-28T12:55:50;14.50;74.00
10431;DHT22;5262;59.958;17.726;2023-02-28T12:58:32;14.00;74.60
10431;DHT22;5262;59.958;17.726;2023-02-28T13:05:04;13.10;75.30
10431;DHT22;5262;59.958;17.726;2023-02-28T13:09:58;12.60;76.90
10431;DHT22;5262;59.958;17.726;2023-02-28T13:12:25;12.30;77.60
10431;DHT22;5262;59.958;17.726;2023-02-28T13:15:07;11.60;78.50
10431;DHT22;5262;59.958;17.726;2023-02-28T13:17:39;11.30;80.00
10431;DHT22;5262;59.958;17.726;2023-02-28T13:20:26;11.30;79.70
10431;DHT22;5262;59.958;17.726;2023-02-28T13:22:54;10.80;80.80
10431;DHT22;5262;59.958;17.726;2023-02-28T13:28:13;10.60;81.90
10431;DHT22;5262;59.958;17.726;2023-02-28T13:36:10;10.50;83.10
10431;DHT22;5262;59.958;17.726;2023-02-28T13:38:48;10.30;83.10
10431;DHT22;5262;59.958;17.726;2023-02-28T13:44:19;10.00;83.80
10431;DHT22;5262;59.958;17.726;2023-02-28T13:51:50;9.90;86.70
10431;DHT22;5262;59.958;17.726;2023-02-28T14:04:48;10.20;84.70
10431;DHT22;5262;59.958;17.726;2023-02-28T14:07:20;10.10;85.50
10431;DHT22;5262;59.958;17.726;2023-02-28T14:09:53;9.90;86.70
10431;DHT22;5262;59.958;17.726;2023-02-28T14:20:44;9.50;89.40
10431;DHT22;5262;59.958;17.726;2023-02-28T14:23:39;9.40;89.70
10431;DHT22;5262;59.958;17.726;2023-02-28T14:29:05;9.50;89.10
10431;DHT22;5262;59.958;17.726;2023-02-28T14:31:44;9.40;89.20
10431;DHT22;5262;59.958;17.726;2023-02-28T14:34:37;9.30;89.10
10431;DHT22;5262;59.958;17.726;2023-02-28T14:37:14;9.20;89.30
10431;DHT22;5262;59.958;17.726;2023-02-28T14:39:42;9.10;89.50
10431;DHT22;5262;59.958;17.726;2023-02-28T14:42:35;9.10;89.80
10431;DHT22;5262;59.958;17.726;2023-02-28T14:45:03;9.00;89.70
10431;DHT22;5262;59.958;17.726;2023-02-28T14:47:34;8.90;90.10
10431;DHT22;5262;59.958;17.726;2023-02-28T14:50:01;8.80;90.30
10431;DHT22;5262;59.958;17.726;2023-02-28T14:52:31;8.80;90.40
10431;DHT22;5262;59.958;17.726;2023-02-28T14:55:04;8.60;91.00
10431;DHT22;5262;59.958;17.726;2023-02-28T14:57:33;8.40;91.70
10431;DHT22;5262;59.958;17.726;2023-02-28T15:00:16;8.30;91.80
10431;DHT22;5262;59.958;17.726;2023-02-28T15:02:42;8.20;92.10
10431;DHT22;5262;59.958;17.726;2023-02-28T15:07:47;7.80;93.10
10431;DHT22;5262;59.958;17.726;2023-02-28T15:10:40;7.70;93.70
10431;DHT22;5262;59.958;17.726;2023-02-28T15:13:12;7.60;93.10
10431;DHT22;5262;59.958;17.726;2023-02-28T15:21:13;7.20;94.10
10431;DHT22;5262;59.958;17.726;2023-02-28T15:23:41;7.00;94.60
10431;DHT22;5262;59.958;17.726;2023-02-28T15:26:15;6.90;95.20
10431;DHT22;5262;59.958;17.726;2023-02-28T15:28:43;6.70;95.70
10431;DHT22;5262;59.958;17.726;2023-02-28T15:31:27;6.60;96.10
10431;DHT22;5262;59.958;17.726;2023-02-28T15:33:55;6.40;96.10
10431;DHT22;5262;59.958;17.726;2023-02-28T15:36:28;6.10;96.70
10431;DHT22;5262;59.958;17.726;2023-02-28T15:38:54;5.90;96.90
10431;DHT22;5262;59.958;17.726;2023-02-28T15:41:29;5.80;97.10
10431;DHT22;5262;59.958;17.726;2023-02-28T15:46:43;5.50;98.10
10431;DHT22;5262;59.958;17.726;2023-02-28T15:49:19;5.20;98.70
10431;DHT22;5262;59.958;17.726;2023-02-28T15:51:45;4.90;99.50
10431;DHT22;5262;59.958;17.726;2023-02-28T15:54:20;4.60;99.90
10431;DHT22;5262;59.958;17.726;2023-02-28T15:56:52;4.40;99.90
10431;DHT22;5262;59.958;17.726;2023-02-28T15:59:28;4.20;99.90
10431;DHT22;5262;59.958;17.726;2023-02-28T16:04:35;3.90;99.90
10431;DHT22;5262;59.958;17.726;2023-02-28T16:07:04;3.70;99.90
10431;DHT22;5262;59.958;17.726;2023-02-28T16:09:30;3.50;99.90
10431;DHT22;5262;59.958;17.726;2023-02-28T16:12:00;3.40;99.90
10431;DHT22;5262;59.958;17.726;2023-02-28T16:14:30;3.30;99.90
10431;DHT22;5262;59.958;17.726;2023-02-28T16:17:22;3.10;99.90
10431;DHT22;5262;59.958;17.726;2023-02-28T16:19:48;2.90;99.90
10431;DHT22;5262;59.958;17.726;2023-02-28T16:22:14;2.80;99.90
10431;DHT22;5262;59.958;17.726;2023-02-28T16:24:40;2.70;99.90
10431;DHT22;5262;59.958;17.726;2023-02-28T16:27:43;2.60;99.90
10431;DHT22;5262;59.958;17.726;2023-02-28T16:30:03;2.50;99.90
10431;DHT22;5262;59.958;17.726;2023-02-28T16:32:31;2.40;99.90
10431;DHT22;5262;59.958;17.726;2023-02-28T16:34:57;2.40;99.90
10431;DHT22;5262;59.958;17.726;2023-02-28T16:37:23;2.30;99.90
10431;DHT22;5262;59.958;17.726;2023-02-28T16:39:48;2.20;99.90
10431;DHT22;5262;59.958;17.726;2023-02-28T16:42:27;2.10;99.90
10431;DHT22;5262;59.958;17.726;2023-02-28T16:44:54;1.90;99.90
10431;DHT22;5262;59.958;17.726;2023-02-28T16:47:20;1.80;99.90
10431;DHT22;5262;59.958;17.726;2023-02-28T16:49:46;1.80;99.90
10431;DHT22;5262;59.958;17.726;2023-02-28T16:52:13;1.70;99.90
10431;DHT22;5262;59.958;17.726;2023-02-28T16:54:40;1.70;99.90
10431;DHT22;5262;59.958;17.726;2023-02-28T16:57:14;1.60;99.90
10431;DHT22;5262;59.958;17.726;2023-02-28T16:59:40;1.60;99.90
10431;DHT22;5262;59.958;17.726;2023-02-28T17:02:14;1.50;99.90
10431;DHT22;5262;59.958;17.726;2023-02-28T17:04:40;1.40;99.90
10431;DHT22;5262;59.958;17.726;2023-02-28T17:07:10;1.40;99.90
10431;DHT22;5262;59.958;17.726;2023-02-28T17:09:36;1.30;99.90
10431;DHT22;5262;59.958;17.726;2023-02-28T17:12:02;1.20;99.90
10431;DHT22;5262;59.958;17.726;2023-02-28T17:14:27;1.20;99.90
10431;DHT22;5262;59.958;17.726;2023-02-28T17:16:53;1.20;99.90
10431;DHT22;5262;59.958;17.726;2023-02-28T17:19:19;1.10;99.90
10431;DHT22;5262;59.958;17.726;2023-02-28T17:21:46;1.00;99.90
10431;DHT22;5262;59.958;17.726;2023-02-28T17:24:11;1.00;99.90
10431;DHT22;5262;59.958;17.726;2023-02-28T17:26:39;0.90;99.90
10431;DHT22;5262;59.958;17.726;2023-02-28T17:29:11;0.80;99.90
10431;DHT22;5262;59.958;17.726;2023-02-28T17:31:38;0.70;99.90
10431;DHT22;5262;59.958;17.726;2023-02-28T17:34:04;0.70;99.90
10431;DHT22;5262;59.958;17.726;2023-02-28T17:36:30;0.50;99.90
10431;DHT22;5262;59.958;17.726;2023-02-28T17:38:56;0.30;99.90
10431;DHT22;5262;59.958;17.726;2023-02-28T17:41:22;0.30;99.90
10431;DHT22;5262;59.958;17.726;2023-02-28T17:43:47;0.30;99.90
10431;DHT22;5262;59.958;17.726;2023-02-28T17:46:23;0.30;99.90
10431;DHT22;5262;59.958;17.726;2023-02-28T17:48:50;0.30;99.90
10431;DHT22;5262;59.958;17.726;2023-02-28T17:51:17;0.30;99.90
10431;DHT22;5262;59.958;17.726;2023-02-28T17:53:43;0.30;99.90
10431;DHT22;5262;59.958;17.726;2023-02-28T17:56:21;0.30;99.90
10431;DHT22;5262;59.958;17.726;2023-02-28T17:58:49;0.30;99.90
10431;DHT22;5262;59.958;17.726;2023-02-28T18:01:15;0.30;99.90
10431;DHT22;5262;59.958;17.726;2023-02-28T18:03:40;0.30;99.90
10431;DHT22;5262;59.958;17.726;2023-02-28T18:06:08;0.30;99.90
10431;DHT22;5262;59.958;17.726;2023-02-28T18:08:38;0.30;99.90
10431;DHT22;5262;59.958;17.726;2023-02-28T18:11:04;0.30;99.90
10431;DHT22;5262;59.958;17.726;2023-02-28T18:13:30;0.20;99.90